Time;durP1;ratioP1;P1;durP2;ratioP2;P2;SDS_P1;SDS_P2;PMS_P1;PMS_P2;Temp;Humidity;BMP_temperature;BMP_pressure;BME280_temperature;BME280_humidity;BME280_pressure;Samples;Min_cycle;Max_cycle;Signal;HPM_P1;HPM_P2
2023/10/16 00:00:33;;;;;;;2.95;0.70;;;;;;;8.69;66.57;100862.44;5052917;28;20094;-76
2023/10/16 00:03:00;;;;;;;2.70;0.40;;;;;;;8.68;67.12;100872.34;5053120;28;20028;-76
2023/10/16 00:05:31;;;;;;;1.17;0.40;;;;;;;8.65;66.66;100872.72;5052253;28;20037;-75
2023/10/16 00:07:57;;;;;;;1.98;0.30;;;;;;;8.60;66.88;100879.63;5051963;28;20021;-76
2023/10/16 00:10:25;;;;;;;2.83;0.70;;;;;;;8.51;67.18;100876.22;5052976;28;20091;-76
2023/10/16 00:12:50;;;;;;;2.38;0.35;;;;;;;8.47;67.54;100886.47;5034002;28;20129;-76
2023/10/16 00:15:16;;;;;;;1.40;0.45;;;;;;;8.41;67.71;100884.53;5050662;28;20124;-76
2023/10/16 00:17:43;;;;;;;2.13;0.30;;;;;;;8.36;68.38;100875.34;5070537;28;20529;-75
2023/10/16 00:20:14;;;;;;;2.17;0.32;;;;;;;8.28;68.73;100883.44;5071869;28;20056;-76
2023/10/16 00:22:43;;;;;;;1.63;0.30;;;;;;;8.23;68.66;100884.81;5068883;28;20023;-76
2023/10/16 00:25:10;;;;;;;1.20;0.40;;;;;;;8.25;69.24;100879.31;5071816;28;20119;-76
2023/10/16 00:27:38;;;;;;;3.28;0.57;;;;;;;8.22;69.53;100882.34;5070885;28;20020;-76
2023/10/16 00:30:08;;;;;;;1.90;0.40;;;;;;;8.20;70.14;100892.41;5053863;28;20029;-76
2023/10/16 00:32:37;;;;;;;1.20;0.30;;;;;;;8.21;69.43;100894.91;5074988;28;20036;-76
2023/10/16 00:35:08;;;;;;;1.35;0.32;;;;;;;8.19;70.05;100896.94;5068153;28;20025;-76
2023/10/16 00:37:34;;;;;;;3.80;0.57;;;;;;;7.97;70.09;100861.09;5050709;28;20059;-76
2023/10/16 00:40:10;;;;;;;2.75;0.30;;;;;;;8.18;70.23;100897.13;5051196;28;20108;-76
2023/10/16 00:42:36;;;;;;;1.42;0.30;;;;;;;8.04;70.46;100881.81;5067280;28;20654;-75
2023/10/16 00:45:03;;;;;;;2.88;0.40;;;;;;;8.16;70.92;100901.81;5052965;28;20108;-75
2023/10/16 00:47:29;;;;;;;2.05;0.30;;;;;;;8.12;71.05;100911.25;5052092;28;20103;-76
2023/10/16 00:49:55;;;;;;;3.45;0.40;;;;;;;8.06;71.37;100909.28;5049563;28;20059;-75
2023/10/16 00:52:20;;;;;;;1.95;0.25;;;;;;;8.04;71.76;100909.44;5051099;28;20033;-76
2023/10/16 00:54:46;;;;;;;1.27;0.32;;;;;;;8.02;71.87;100921.38;5033307;28;20036;-76
2023/10/16 00:57:13;;;;;;;2.90;0.35;;;;;;;8.00;71.74;100925.06;5049128;28;20462;-76
2023/10/16 00:59:41;;;;;;;1.08;0.20;;;;;;;7.92;71.98;100916.25;5050731;28;20507;-76
2023/10/16 01:02:11;;;;;;;2.60;0.30;;;;;;;7.74;72.24;100911.19;5065487;28;20210;-76
2023/10/16 01:04:37;;;;;;;0.80;0.30;;;;;;;7.77;72.86;100918.88;5050496;28;20025;-76
2023/10/16 01:07:05;;;;;;;1.90;0.38;;;;;;;7.74;73.44;100921.91;5049127;28;20029;-76
2023/10/16 01:09:34;;;;;;;2.95;0.30;;;;;;;7.74;73.25;100929.94;5050566;28;20378;-75
2023/10/16 01:12:00;;;;;;;3.55;0.45;;;;;;;7.70;73.20;100923.28;5069979;28;20033;-76
2023/10/16 01:14:26;;;;;;;2.40;0.77;;;;;;;7.75;73.81;100931.63;5059918;28;20497;-76
2023/10/16 01:16:54;;;;;;;2.17;0.40;;;;;;;7.77;73.89;100934.94;5065803;28;20037;-76
2023/10/16 01:19:20;;;;;;;3.33;0.40;;;;;;;7.76;73.65;100938.63;5052660;28;20102;-76
2023/10/16 01:21:48;;;;;;;0.77;0.20;;;;;;;7.75;74.22;100931.63;5054987;28;20037;-76
2023/10/16 01:24:13;;;;;;;1.17;0.30;;;;;;;7.74;74.28;100940.66;5057592;28;20042;-76
2023/10/16 01:26:42;;;;;;;2.75;0.30;;;;;;;7.73;74.18;100942.50;5074388;28;20025;-76
2023/10/16 01:29:09;;;;;;;1.38;0.30;;;;;;;7.63;74.45;100944.56;5074720;28;20592;-76
2023/10/16 01:31:38;;;;;;;2.00;0.32;;;;;;;7.57;74.95;100942.59;5055207;28;20060;-76
2023/10/16 01:34:10;;;;;;;3.28;0.40;;;;;;;7.58;74.50;100946.09;5054396;28;20125;-76
2023/10/16 01:36:45;;;;;;;1.75;0.50;;;;;;;7.59;74.59;100951.28;5068267;28;20148;-76
2023/10/16 01:39:47;;;;;;;1.33;0.30;;;;;;;7.44;74.60;100932.44;5075465;28;20035;-75
2023/10/16 01:41:56;;;;;;;2.22;0.35;;;;;;;7.58;74.90;100956.81;5062825;28;20036;-75
2023/10/16 01:44:21;;;;;;;0.82;0.38;;;;;;;7.54;74.87;100945.63;5067056;28;20124;-76
2023/10/16 01:46:47;;;;;;;1.70;0.40;;;;;;;7.57;74.99;100960.50;5037931;28;20068;-76
2023/10/16 01:49:13;;;;;;;3.20;0.45;;;;;;;7.49;75.04;100953.38;5053866;28;20029;-76
2023/10/16 01:51:43;;;;;;;1.85;0.50;;;;;;;7.39;75.50;100940.19;5071197;28;20073;-76
2023/10/16 01:54:14;;;;;;;3.05;0.85;;;;;;;7.33;75.59;100948.91;5054440;28;20033;-76
2023/10/16 01:56:39;;;;;;;3.88;0.40;;;;;;;7.42;75.55;100958.59;5053819;28;20053;-75
2023/10/16 01:59:06;;;;;;;1.10;0.22;;;;;;;7.44;75.88;100961.06;5053426;28;20480;-76
2023/10/16 02:01:31;;;;;;;2.45;0.40;;;;;;;7.42;75.52;100955.91;5053640;28;20032;-76
2023/10/16 02:03:57;;;;;;;1.38;0.32;;;;;;;7.24;76.04;100945.44;5067085;28;20040;-76
2023/10/16 02:06:25;;;;;;;0.85;0.28;;;;;;;7.33;76.06;100970.34;5057725;28;20032;-76
2023/10/16 02:08:51;;;;;;;2.85;0.32;;;;;;;7.26;76.17;100974.72;5056216;28;20024;-76
2023/10/16 02:11:16;;;;;;;1.70;0.30;;;;;;;7.03;76.73;100953.22;5057663;28;20490;-76
2023/10/16 02:13:43;;;;;;;0.73;0.20;;;;;;;7.15;76.75;100967.03;5055456;28;20033;-76
2023/10/16 02:16:10;;;;;;;1.05;0.20;;;;;;;7.07;76.59;100960.72;5060828;28;20115;-76
2023/10/16 02:18:37;;;;;;;1.75;0.30;;;;;;;7.22;76.63;100976.06;5055545;28;20479;-76
2023/10/16 02:21:09;;;;;;;1.65;0.40;;;;;;;7.22;76.40;100978.75;5053675;28;20060;-76
2023/10/16 02:23:36;;;;;;;1.85;0.45;;;;;;;7.20;76.70;100976.22;5055247;28;20194;-76
2023/10/16 02:26:05;;;;;;;2.03;0.47;;;;;;;7.06;77.03;100967.09;5071848;28;20036;-76
2023/10/16 02:28:34;;;;;;;0.85;0.40;;;;;;;6.95;77.53;100964.75;5052991;28;20029;-75
2023/10/16 02:31:18;;;;;;;0.65;0.20;;;;;;;7.14;77.58;100989.47;5065625;28;20028;-76
2023/10/16 02:33:46;;;;;;;1.33;0.25;;;;;;;7.13;77.11;100985.97;5052020;28;20037;-75
2023/10/16 02:36:15;;;;;;;1.95;0.28;;;;;;;7.11;77.26;100992.47;5068751;28;20114;-75
2023/10/16 02:38:42;;;;;;;2.13;0.25;;;;;;;7.13;77.17;100998.50;5068286;28;20031;-76
2023/10/16 02:41:08;;;;;;;0.80;0.20;;;;;;;7.16;77.43;101000.84;5053188;28;20032;-76
2023/10/16 02:43:37;;;;;;;1.75;0.40;;;;;;;6.98;77.21;100977.78;5068721;28;20047;-76
2023/10/16 02:46:04;;;;;;;1.20;0.32;;;;;;;7.02;77.18;100989.84;5055200;28;20017;-75
2023/10/16 02:48:30;;;;;;;1.17;0.30;;;;;;;7.07;77.44;100992.81;5073157;28;20372;-75
2023/10/16 02:50:59;;;;;;;3.60;0.32;;;;;;;7.14;77.07;101003.69;5056045;28;20109;-75
2023/10/16 02:53:27;;;;;;;2.90;0.28;;;;;;;7.13;77.51;101012.72;5071942;28;20028;-75
2023/10/16 02:56:05;;;;;;;1.17;0.30;;;;;;;7.09;77.66;101005.22;5074168;28;20036;-75
2023/10/16 02:58:31;;;;;;;0.98;0.30;;;;;;;7.04;77.90;101003.03;5074123;28;20179;-76
2023/10/16 03:00:59;;;;;;;4.35;0.60;;;;;;;7.03;77.17;101014.75;5076791;28;20116;-75
2023/10/16 03:03:26;;;;;;;0.85;0.30;;;;;;;7.04;77.36;101021.75;5071378;28;20032;-75
2023/10/16 03:05:56;;;;;;;1.38;0.30;;;;;;;7.05;77.67;101018.94;5071048;28;20117;-76
2023/10/16 03:08:29;;;;;;;1.85;0.30;;;;;;;6.93;77.11;100992.72;5072591;28;20032;-75
2023/10/16 03:10:56;;;;;;;1.80;0.32;;;;;;;6.95;77.25;101009.41;5071405;28;20064;-75
2023/10/16 03:13:21;;;;;;;2.70;0.20;;;;;;;7.06;77.32;101030.47;5037982;28;20182;-75
2023/10/16 03:15:47;;;;;;;2.05;0.30;;;;;;;6.91;77.24;101008.09;5038004;28;20489;-76
2023/10/16 03:18:17;;;;;;;1.98;0.25;;;;;;;7.00;77.52;101034.66;5071360;28;20028;-76
2023/10/16 03:20:47;;;;;;;1.23;0.20;;;;;;;6.97;77.34;101043.00;5072352;28;20039;-76
2023/10/16 03:23:18;;;;;;;3.03;0.40;;;;;;;6.98;77.32;101050.03;5073455;28;20441;-76
2023/10/16 03:28:11;;;;;;;0.82;0.30;;;;;;;7.00;77.13;101055.22;5073419;28;20028;-76
2023/10/16 03:30:39;;;;;;;1.60;0.30;;;;;;;7.03;76.68;101054.88;5072704;28;20025;-76
2023/10/16 03:33:05;;;;;;;0.40;0.20;;;;;;;7.04;76.67;101068.09;5073671;28;20027;-76
2023/10/16 03:35:31;;;;;;;2.13;0.30;;;;;;;7.02;76.54;101066.59;5073073;28;20119;-75
2023/10/16 03:37:58;;;;;;;0.35;0.25;;;;;;;7.01;76.66;101065.75;5071743;28;20526;-76
2023/10/16 03:40:24;;;;;;;1.02;0.32;;;;;;;6.83;76.71;101046.38;5072607;28;20211;-76
2023/10/16 03:42:56;;;;;;;2.00;0.40;;;;;;;6.97;76.67;101071.63;5065327;28;20075;-76
2023/10/16 03:45:22;;;;;;;0.88;0.30;;;;;;;6.94;76.63;101070.09;5051969;28;20029;-76
2023/10/16 03:47:57;;;;;;;0.47;0.20;;;;;;;6.94;76.46;101077.28;5056943;28;20016;-76
2023/10/16 03:50:26;;;;;;;1.95;0.32;;;;;;;6.89;76.76;101076.94;5059927;28;20044;-76
2023/10/16 03:52:54;;;;;;;1.48;0.25;;;;;;;6.87;76.32;101079.81;5052331;28;20029;-76
2023/10/16 03:55:27;;;;;;;3.25;0.50;;;;;;;6.83;76.05;101089.19;5071035;28;20029;-76
2023/10/16 03:57:56;;;;;;;1.27;0.30;;;;;;;6.78;76.35;101083.50;5036642;28;20051;-76
2023/10/16 04:00:50;;;;;;;3.13;0.40;;;;;;;6.66;76.25;101082.16;5064360;28;20393;-76
2023/10/16 04:03:21;;;;;;;2.78;0.30;;;;;;;6.67;76.36;101091.84;5052475;28;20063;-75
2023/10/16 04:05:48;;;;;;;1.67;0.30;;;;;;;6.66;76.36;101090.19;5038032;28;20427;-76
2023/10/16 04:08:18;;;;;;;1.95;0.40;;;;;;;6.60;76.30;101097.03;5055265;28;20036;-76
2023/10/16 04:10:49;;;;;;;1.65;0.35;;;;;;;6.52;76.38;101103.22;5065240;28;20032;-76
2023/10/16 04:13:16;;;;;;;1.52;0.17;;;;;;;6.49;76.51;101100.88;5071616;28;20024;-76
2023/10/16 04:15:59;;;;;;;3.08;0.40;;;;;;;6.44;76.69;101089.00;5070114;28;20036;-76
2023/10/16 04:20:56;;;;;;;1.83;0.30;;;;;;;6.50;76.36;101110.56;5071640;28;20060;-75
2023/10/16 04:23:52;;;;;;;2.08;0.20;;;;;;;6.48;76.40;101104.53;5071312;28;20028;-75
2023/10/16 04:26:30;;;;;;;0.98;0.30;;;;;;;6.50;76.49;101107.88;5067844;28;20028;-74
2023/10/16 04:31:44;;;;;;;1.67;0.20;;;;;;;6.49;76.43;101122.25;5063275;28;20099;-74
2023/10/16 04:36:53;;;;;;;2.95;0.30;;;;;;;6.51;76.22;101116.72;5063407;28;20086;-75
2023/10/16 04:45:00;;;;;;;0.70;0.30;;;;;;;6.50;75.62;101113.22;5055905;28;20035;-75
2023/10/16 04:47:41;;;;;;;0.60;0.30;;;;;;;6.37;75.53;101101.34;5039214;28;20059;-75
2023/10/16 04:50:09;;;;;;;0.90;0.20;;;;;;;6.52;75.51;101124.59;5073131;28;20059;-76
2023/10/16 04:53:21;;;;;;;4.05;0.30;;;;;;;6.42;75.78;101113.19;5069942;28;20037;-76
2023/10/16 05:16:48;;;;;;;2.45;0.30;;;;;;;5.92;75.93;101137.22;5070326;28;20024;-76
2023/10/16 06:16:43;;;;;;;0.50;0.30;;;;;;;5.57;76.99;101212.00;5074079;28;20097;-75
2023/10/16 06:19:19;;;;;;;0.25;0.15;;;;;;;5.58;76.68;101218.16;5072426;28;20044;-75
2023/10/16 06:21:56;;;;;;;1.77;0.20;;;;;;;5.59;76.65;101211.81;5072825;28;20028;-75
2023/10/16 06:24:28;;;;;;;1.35;0.30;;;;;;;5.61;76.62;101229.34;5072289;28;20028;-75
2023/10/16 06:26:59;;;;;;;0.88;0.20;;;;;;;5.59;76.71;101217.16;5071588;28;20032;-75
2023/10/16 06:29:26;;;;;;;1.30;0.20;;;;;;;5.67;76.39;101216.41;5070679;28;20028;-76
2023/10/16 06:31:58;;;;;;;3.80;0.45;;;;;;;5.72;76.56;101230.94;5054064;28;20116;-75
2023/10/16 06:34:24;;;;;;;0.90;0.25;;;;;;;5.75;76.63;101235.94;5071024;28;20087;-75
2023/10/16 06:36:53;;;;;;;1.02;0.30;;;;;;;5.75;76.46;101245.81;5072647;28;20115;-75
2023/10/16 06:39:28;;;;;;;0.70;0.30;;;;;;;5.75;76.67;101241.28;5073660;28;20017;-75
2023/10/16 06:41:55;;;;;;;1.55;0.40;;;;;;;5.74;76.50;101258.31;5041037;28;20090;-75
2023/10/16 06:44:28;;;;;;;1.02;0.30;;;;;;;5.87;76.67;101252.56;5073260;28;20028;-75
2023/10/16 06:47:01;;;;;;;0.68;0.20;;;;;;;5.95;76.26;101252.63;5072287;28;20388;-75
2023/10/16 06:49:36;;;;;;;1.67;0.30;;;;;;;5.89;76.25;101240.75;5072760;28;20024;-75
2023/10/16 06:52:04;;;;;;;1.27;0.20;;;;;;;6.03;76.23;101265.22;5068397;28;20016;-75
2023/10/16 06:54:37;;;;;;;0.40;0.20;;;;;;;6.01;75.90;101259.19;5062967;28;20048;-76
2023/10/16 06:57:10;;;;;;;1.17;0.20;;;;;;;6.19;76.01;101269.78;5068695;28;20083;-75
2023/10/16 06:59:45;;;;;;;1.20;0.25;;;;;;;6.24;75.95;101264.81;5056379;28;20096;-75
2023/10/16 07:02:19;;;;;;;1.42;0.30;;;;;;;6.32;75.41;101272.88;5053019;28;20032;-75
2023/10/16 07:04:46;;;;;;;0.63;0.28;;;;;;;6.46;75.33;101266.94;5059690;28;20082;-75
2023/10/16 07:07:15;;;;;;;1.55;0.20;;;;;;;6.52;75.11;101271.66;5074113;28;20021;-75
2023/10/16 07:09:51;;;;;;;1.02;0.25;;;;;;;6.49;75.15;101250.56;5072686;28;20028;-75
2023/10/16 07:12:18;;;;;;;1.15;0.40;;;;;;;6.77;74.63;101287.75;5056356;28;20056;-76
2023/10/16 07:14:57;;;;;;;0.93;0.30;;;;;;;6.88;74.26;101291.97;5071956;28;20105;-75
2023/10/16 07:17:27;;;;;;;1.58;0.40;;;;;;;6.99;73.77;101292.50;5072262;28;20267;-75
2023/10/16 07:20:17;;;;;;;0.55;0.30;;;;;;;7.07;73.24;101299.72;5072275;28;20028;-75
2023/10/16 07:22:39;;;;;;;6.13;3.72;;;;;;;7.05;72.96;101277.63;5072935;28;20032;-75
2023/10/16 07:25:24;;;;;;;5.40;3.40;;;;;;;7.24;72.74;101298.72;5072896;28;20398;-75
2023/10/16 07:27:50;;;;;;;;;;;;;;;7.41;74.05;101307.63;5072335;28;20115;-75
2023/10/16 07:30:21;;;;;;;2.50;0.70;;;;;;;7.46;72.41;101307.13;5088843;28;20011;-76
2023/10/16 07:32:50;;;;;;;1.75;0.77;;;;;;;7.51;72.25;101302.94;5066637;28;20036;-75
2023/10/16 07:35:18;;;;;;;2.88;0.40;;;;;;;7.62;72.05;101306.31;5071342;28;20029;-75
2023/10/16 07:37:54;;;;;;;0.90;0.40;;;;;;;7.70;71.58;101303.63;5054591;28;20044;-75
2023/10/16 07:40:21;;;;;;;1.15;0.50;;;;;;;7.83;71.44;101313.84;5066677;28;20107;-75
2023/10/16 07:42:47;;;;;;;1.77;0.40;;;;;;;7.91;71.02;101312.00;5070753;28;20082;-75
2023/10/16 07:45:13;;;;;;;1.92;0.40;;;;;;;8.05;70.13;101320.34;5073485;28;20494;-75
2023/10/16 07:47:39;;;;;;;0.80;0.30;;;;;;;8.14;70.03;101319.31;5069359;28;20040;-76
2023/10/16 07:50:07;;;;;;;1.88;0.30;;;;;;;8.23;69.91;101324.47;5087873;28;20078;-76
2023/10/16 07:52:34;;;;;;;1.20;0.32;;;;;;;8.34;69.30;101323.28;5077826;28;20126;-75
2023/10/16 07:55:01;;;;;;;0.30;0.20;;;;;;;8.36;68.46;101313.22;5082544;28;20093;-76
2023/10/16 07:57:27;;;;;;;0.80;0.30;;;;;;;8.50;68.13;101325.09;5090805;28;20066;-75
2023/10/16 07:59:56;;;;;;;0.38;0.20;;;;;;;8.59;68.04;101328.59;5075826;28;20655;-75
2023/10/16 08:02:21;;;;;;;0.82;0.28;;;;;;;8.67;67.01;101328.56;5063017;28;20535;-75
2023/10/16 08:04:53;;;;;;;1.40;0.30;;;;;;;8.63;66.75;101306.63;5087260;28;20036;-75
2023/10/16 08:07:18;;;;;;;0.75;0.30;;;;;;;8.87;67.35;101328.97;5068470;28;20092;-75
2023/10/16 08:09:57;;;;;;;1.25;0.30;;;;;;;8.82;66.72;101317.94;5091518;28;20024;-75
2023/10/16 08:12:35;;;;;;;9.10;3.70;;;;;;;9.01;65.63;101346.22;5096904;28;20395;-75
2023/10/16 08:15:09;;;;;;;23.27;12.23;;;;;;;9.11;65.37;101353.03;5084364;28;20032;-76
2023/10/16 08:17:36;;;;;;;13.93;8.00;;;;;;;9.20;65.31;101351.13;5090949;28;20039;-75
2023/10/16 08:20:06;;;;;;;2.67;1.30;;;;;;;9.25;64.76;101348.75;5082566;28;20032;-75
2023/10/16 08:22:32;;;;;;;1.00;0.68;;;;;;;9.32;65.18;101355.09;5064933;28;20020;-75
2023/10/16 08:24:57;;;;;;;1.65;1.55;;;;;;;9.38;64.46;101351.69;5060494;28;20033;-75
2023/10/16 08:27:41;;;;;;;3.63;2.10;;;;;;;9.43;64.49;101358.38;5072266;28;20085;-75
2023/10/16 08:33:12;;;;;;;0.60;0.30;;;;;;;9.51;63.67;101358.34;4981105;28;20038;-75
2023/10/16 08:35:38;;;;;;;1.45;0.20;;;;;;;9.51;63.82;101356.47;5021776;28;20124;-76
2023/10/16 08:38:10;;;;;;;1.48;0.55;;;;;;;9.51;63.58;101352.97;5053787;28;20043;-76
2023/10/16 08:40:39;;;;;;;0.57;0.40;;;;;;;9.61;63.14;101358.94;5072087;28;20115;-75
2023/10/16 08:43:07;;;;;;;1.75;0.30;;;;;;;9.70;62.30;101351.63;5073348;28;20077;-76
2023/10/16 08:45:33;;;;;;;0.32;0.22;;;;;;;9.76;62.77;101356.28;5054194;28;20031;-76
2023/10/16 08:48:01;;;;;;;0.98;0.28;;;;;;;9.80;62.27;101355.75;5070200;28;20411;-76
2023/10/16 08:50:40;;;;;;;0.60;0.28;;;;;;;9.69;62.08;101326.63;5053382;28;20028;-75
2023/10/16 08:53:09;;;;;;;0.30;0.20;;;;;;;9.87;62.01;101356.72;5036861;28;20073;-76
2023/10/16 08:55:35;;;;;;;0.68;0.30;;;;;;;9.85;61.92;101336.41;5067274;28;20028;-76
2023/10/16 08:58:04;;;;;;;1.40;0.30;;;;;;;9.98;61.79;101351.91;5052562;28;20056;-75
2023/10/16 09:00:30;;;;;;;0.30;0.20;;;;;;;9.99;61.57;101354.41;5069937;28;20550;-75
2023/10/16 09:03:00;;;;;;;0.60;0.20;;;;;;;10.04;61.42;101357.41;5069636;28;20029;-75
2023/10/16 09:05:26;;;;;;;1.50;0.30;;;;;;;10.16;61.02;101362.31;5069906;28;20036;-75
2023/10/16 09:07:51;;;;;;;1.15;0.57;;;;;;;10.25;61.12;101353.16;5069755;28;20024;-75
2023/10/16 09:10:21;;;;;;;1.10;0.90;;;;;;;10.34;60.97;101360.16;5071691;28;20106;-75
2023/10/16 09:13:13;;;;;;;2.00;0.98;;;;;;;10.34;60.55;101346.72;5070389;28;20433;-75
2023/10/16 09:15:45;;;;;;;0.68;0.28;;;;;;;10.44;59.85;101367.97;5055709;28;20115;-75
2023/10/16 09:18:16;;;;;;;0.40;0.10;;;;;;;10.46;60.03;101374.00;5053840;28;20048;-75
2023/10/16 09:20:42;;;;;;;1.17;0.20;;;;;;;10.55;59.64;101373.72;5070991;28;20039;-75
2023/10/16 09:23:13;;;;;;;1.02;0.10;;;;;;;10.53;59.40;101369.56;5054246;28;20260;-75
2023/10/16 09:25:46;;;;;;;0.35;0.20;;;;;;;10.64;59.56;101382.53;5070062;28;20029;-75
2023/10/16 09:28:22;;;;;;;0.95;0.38;;;;;;;10.74;59.49;101393.03;5070762;28;20465;-75
2023/10/16 09:30:49;;;;;;;0.45;0.20;;;;;;;10.72;58.80;101387.81;5071085;28;20020;-75
2023/10/16 09:33:15;;;;;;;1.20;0.20;;;;;;;10.75;59.13;101389.31;5069266;28;20094;-76
2023/10/16 09:35:43;;;;;;;0.20;0.10;;;;;;;10.91;58.30;101391.00;5052356;28;20046;-76
2023/10/16 09:38:23;;;;;;;0.45;0.10;;;;;;;10.91;58.00;101399.06;5069303;28;20105;-75
2023/10/16 09:41:37;;;;;;;0.10;0.10;;;;;;;10.91;57.81;101388.28;5073279;28;20135;-75
2023/10/16 09:43:56;;;;;;;0.40;0.13;;;;;;;11.16;57.51;101397.75;5080874;28;20417;-75
2023/10/16 09:49:09;;;;;;;0.10;0.10;;;;;;;11.23;56.99;101406.75;5095386;28;20128;-75
2023/10/16 09:51:35;;;;;;;0.20;0.10;;;;;;;11.31;56.93;101399.56;5093389;28;20031;-75
2023/10/16 09:54:02;;;;;;;0.65;0.20;;;;;;;11.34;55.90;101409.97;5094916;28;20032;-75
2023/10/16 09:56:40;;;;;;;1.08;0.30;;;;;;;11.39;55.34;101411.06;5076037;28;20058;-75
2023/10/16 09:59:22;;;;;;;0.30;0.20;;;;;;;11.43;54.74;101423.13;5093450;28;20036;-76
2023/10/16 10:01:51;;;;;;;5.10;0.30;;;;;;;11.53;54.83;101414.75;5094102;28;20023;-75
2023/10/16 10:04:24;;;;;;;0.20;0.10;;;;;;;11.49;54.55;101429.63;5093662;28;20044;-75
2023/10/16 10:06:58;;;;;;;0.38;0.20;;;;;;;11.33;53.50;101411.00;5093554;28;20031;-75
2023/10/16 10:09:44;;;;;;;0.40;0.20;;;;;;;11.41;52.46;101435.13;5094615;28;20107;-75
2023/10/16 10:12:28;;;;;;;0.40;0.20;;;;;;;11.51;52.28;101425.72;5077246;28;20024;-75
2023/10/16 10:15:12;;;;;;;1.55;0.13;;;;;;;11.57;52.03;101429.50;5066182;28;20037;-75
2023/10/16 10:17:43;;;;;;;0.30;0.20;;;;;;;11.53;51.63;101412.88;5067912;28;20017;-75
2023/10/16 10:20:09;;;;;;;0.00;0.00;;;;;;;11.67;50.97;101438.13;5048316;28;20033;-74
2023/10/16 10:22:36;;;;;;;0.03;0.03;;;;;;;11.77;50.56;101432.41;5050748;28;20538;-76
2023/10/16 10:25:17;;;;;;;0.85;0.10;;;;;;;11.70;50.15;101424.25;5065323;28;20111;-74
2023/10/16 10:27:43;;;;;;;0.30;0.10;;;;;;;11.91;49.62;101444.19;5074315;28;20018;-75
2023/10/16 10:30:27;;;;;;;0.00;0.00;;;;;;;11.97;47.45;101433.47;5073232;28;20025;-75
2023/10/16 10:32:55;;;;;;;0.45;0.10;;;;;;;12.03;49.12;101433.75;5071987;28;20079;-75
2023/10/16 10:35:28;;;;;;;0.32;0.10;;;;;;;12.05;49.34;101443.28;5055715;28;20035;-75
2023/10/16 10:38:20;;;;;;;0.10;0.10;;;;;;;11.88;48.18;101428.41;5073510;28;20540;-77
2023/10/16 10:41:04;;;;;;;0.00;0.00;;;;;;;11.99;48.16;101436.00;5072418;28;20521;-75
2023/10/16 10:44:08;;;;;;;0.10;0.00;;;;;;;11.71;47.73;101417.00;5073438;28;20399;-76
2023/10/16 10:46:34;;;;;;;0.00;0.00;;;;;;;11.87;47.43;101435.66;5067989;28;20052;-75
2023/10/16 10:49:03;;;;;;;1.50;0.10;;;;;;;11.76;46.90;101426.19;5054789;28;20028;-75
2023/10/16 10:51:34;;;;;;;1.40;0.10;;;;;;;11.91;46.35;101431.53;5071971;28;20036;-75
2023/10/16 10:54:03;;;;;;;0.15;0.10;;;;;;;11.93;46.15;101431.38;5071612;28;20047;-75
2023/10/16 10:56:47;;;;;;;0.43;0.10;;;;;;;11.94;46.33;101422.25;5070187;28;20114;-75
2023/10/16 10:59:31;;;;;;;0.10;0.10;;;;;;;11.98;46.81;101418.97;5070394;28;20296;-75
2023/10/16 11:02:08;;;;;;;0.10;0.10;;;;;;;12.09;46.18;101433.81;5056307;28;20028;-75
2023/10/16 11:04:34;;;;;;;0.15;0.10;;;;;;;12.17;45.93;101433.66;5071133;28;20033;-75
2023/10/16 11:07:11;;;;;;;0.10;0.10;;;;;;;12.17;45.90;101432.81;5059696;28;20111;-75
2023/10/16 11:09:42;;;;;;;0.00;0.00;;;;;;;12.16;45.10;101413.13;5058322;28;20040;-75
2023/10/16 11:12:08;;;;;;;0.30;0.10;;;;;;;12.22;44.97;101428.53;5051784;28;20021;-76
2023/10/16 11:14:38;;;;;;;0.10;0.00;;;;;;;12.13;44.65;101415.38;5051727;28;20028;-75
2023/10/16 11:17:07;;;;;;;0.55;0.10;;;;;;;12.32;45.10;101430.06;5068945;28;20052;-75
2023/10/16 11:19:47;;;;;;;0.20;0.10;;;;;;;12.25;44.91;101442.63;5072695;28;20074;-75
2023/10/16 11:22:18;;;;;;;0.17;0.10;;;;;;;12.12;45.01;101425.34;5072736;28;20479;-75
2023/10/16 11:24:43;;;;;;;0.05;0.00;;;;;;;12.16;44.48;101437.41;5071349;28;20028;-75
2023/10/16 11:27:09;;;;;;;0.00;0.00;;;;;;;12.33;44.87;101443.34;5071087;28;20030;-75
2023/10/16 11:29:36;;;;;;;0.75;0.15;;;;;;;12.09;44.97;101433.81;5070708;28;20082;-75
2023/10/16 11:32:06;;;;;;;0.03;0.03;;;;;;;12.27;44.81;101451.38;5038119;28;20450;-75
2023/10/16 11:35:13;;;;;;;1.55;0.10;;;;;;;12.25;44.62;101457.00;5069571;28;20065;-76
2023/10/16 11:37:39;;;;;;;0.43;0.00;;;;;;;12.17;44.18;101455.25;5064505;28;20041;-75
2023/10/16 11:40:18;;;;;;;0.30;0.20;;;;;;;12.31;44.17;101455.38;5054212;28;20032;-75
2023/10/16 11:42:45;;;;;;;0.50;0.10;;;;;;;12.40;44.29;101449.63;5068073;28;20032;-76
2023/10/16 11:45:18;;;;;;;0.17;0.10;;;;;;;12.32;44.79;101428.19;5034483;28;20503;-75
2023/10/16 11:47:44;;;;;;;0.00;0.00;;;;;;;12.33;44.72;101456.00;5035162;28;20029;-75
2023/10/16 11:50:15;;;;;;;1.10;0.10;;;;;;;12.15;45.11;101434.88;5067676;28;20110;-75
2023/10/16 11:52:41;;;;;;;1.17;0.20;;;;;;;12.15;46.34;101442.97;5051103;28;20029;-75
2023/10/16 11:55:08;;;;;;;0.40;0.10;;;;;;;12.28;45.92;101448.47;5067733;28;20035;-75
2023/10/16 11:57:33;;;;;;;0.10;0.08;;;;;;;12.25;45.52;101461.53;5052204;28;20140;-75
2023/10/16 12:00:15;;;;;;;1.23;0.30;;;;;;;12.18;46.31;101462.31;5051573;28;20052;-75
2023/10/16 12:02:41;;;;;;;0.10;0.10;;;;;;;12.25;46.10;101459.69;5053670;28;20032;-75
2023/10/16 12:05:07;;;;;;;0.40;0.05;;;;;;;12.24;46.63;101458.00;5051166;28;20025;-75
2023/10/16 12:07:33;;;;;;;0.30;0.10;;;;;;;12.32;47.31;101470.53;5050983;28;20021;-75
2023/10/16 12:10:04;;;;;;;1.50;0.10;;;;;;;12.10;48.79;101462.44;5067720;28;20025;-75
2023/10/16 12:12:30;;;;;;;0.55;0.08;;;;;;;12.20;49.58;101467.53;5050784;28;20461;-76
2023/10/16 12:14:57;;;;;;;1.55;0.15;;;;;;;12.25;49.43;101472.31;5051136;28;20025;-76
2023/10/16 12:17:24;;;;;;;0.90;0.10;;;;;;;12.21;49.18;101458.38;5033941;28;20484;-75
2023/10/16 12:19:53;;;;;;;0.13;0.10;;;;;;;12.09;49.59;101468.03;5050239;28;20056;-75
2023/10/16 12:22:20;;;;;;;0.32;0.10;;;;;;;12.15;50.04;101469.94;5050490;28;20537;-76
2023/10/16 12:24:47;;;;;;;2.75;0.32;;;;;;;12.05;50.61;101456.78;5051567;28;20127;-75
2023/10/16 12:27:15;;;;;;;0.95;0.20;;;;;;;12.09;51.34;101476.97;5052417;28;20515;-76
2023/10/16 12:29:42;;;;;;;0.50;0.10;;;;;;;12.07;51.98;101476.31;5056470;28;20072;-75
2023/10/16 12:32:08;;;;;;;2.22;0.20;;;;;;;12.05;52.81;101480.22;5058751;28;20025;-75
2023/10/16 12:34:34;;;;;;;1.20;0.28;;;;;;;11.96;53.34;101479.53;5062768;28;20043;-75
2023/10/16 12:37:06;;;;;;;1.88;0.20;;;;;;;12.15;52.71;101478.91;5054507;28;20056;-75
2023/10/16 12:39:35;;;;;;;0.85;0.10;;;;;;;12.05;52.59;101482.94;5052515;28;20116;-75
2023/10/16 12:42:06;;;;;;;0.82;0.10;;;;;;;12.16;53.25;101474.34;5050219;28;20033;-75
2023/10/16 12:44:32;;;;;;;2.92;0.30;;;;;;;12.23;52.63;101478.75;5034020;28;20075;-75
2023/10/16 12:46:57;;;;;;;0.98;0.30;;;;;;;12.28;52.89;101490.81;5065180;28;20079;-75
2023/10/16 12:49:23;;;;;;;1.17;0.20;;;;;;;12.12;52.74;101494.63;5053264;28;20406;-75
2023/10/16 12:51:53;;;;;;;0.98;0.30;;;;;;;11.96;53.24;101474.97;5069968;28;20056;-76
2023/10/16 12:54:24;;;;;;;0.93;0.10;;;;;;;12.04;52.63;101489.34;5070122;28;20028;-75
2023/10/16 12:56:52;;;;;;;1.80;0.20;;;;;;;12.16;52.11;101502.16;5069664;28;20053;-76
2023/10/16 12:59:19;;;;;;;0.47;0.10;;;;;;;12.17;51.83;101489.50;5054178;28;20058;-76
2023/10/16 13:01:49;;;;;;;1.45;0.15;;;;;;;12.10;52.60;101497.50;5071176;28;20039;-75
2023/10/16 13:04:16;;;;;;;1.40;0.30;;;;;;;12.11;51.43;101488.38;5037407;28;20028;-75
2023/10/16 13:06:43;;;;;;;0.98;0.20;;;;;;;12.26;51.63;101504.53;5070199;28;20031;-76
2023/10/16 13:09:15;;;;;;;0.80;0.10;;;;;;;12.19;51.84;101512.56;5072744;28;20464;-75
2023/10/16 13:11:41;;;;;;;1.20;0.30;;;;;;;12.18;50.87;101504.63;5054087;28;20021;-75
2023/10/16 13:14:06;;;;;;;1.85;0.30;;;;;;;11.80;51.33;101474.34;5072352;28;20037;-75
2023/10/16 13:16:33;;;;;;;0.55;0.10;;;;;;;12.04;50.72;101503.69;5073598;28;20032;-76
2023/10/16 13:18:59;;;;;;;1.65;0.20;;;;;;;12.22;50.70;101505.94;5073999;28;20021;-75
2023/10/16 13:21:35;;;;;;;1.17;0.10;;;;;;;12.18;50.59;101500.06;5072980;28;20055;-75
2023/10/16 13:24:12;;;;;;;1.83;0.30;;;;;;;12.10;50.73;101504.78;5055927;28;20047;-75
2023/10/16 13:26:38;;;;;;;1.08;0.10;;;;;;;12.16;50.42;101520.19;5051931;28;20035;-75